« Back
NWS Peachtree City, Ga » Text Product » ATL Terminal Aerodrome Forecast


Printer-friendly Version
Current Version              Previous Versions:   1  2  3  4  5  6  7  8  9  

Terminal Aerodrome Forecast

440
FTUS42 KFFC 282300
TAFATL
TAF
KATL 282320Z 2900/3006 VRB03KT P6SM FEW250
     FM291600 19005KT P6SM FEW060
     FM300000 17005KT P6SM FEW070 SCT250=



USA.gov is the U.S. government's official web portal to all federal, state and local government web resources and services.